sensor_id;sensor_type;location;lat;lon;timestamp;temperature;humidity
43099;DHT22;28715;51.988;6.020;2023-03-14T00:00:36;13.40;99.90
43099;DHT22;28715;51.988;6.020;2023-03-14T00:03:01;13.40;99.90
43099;DHT22;28715;51.988;6.020;2023-03-14T00:05:27;13.30;99.90
43099;DHT22;28715;51.988;6.020;2023-03-14T00:07:53;13.30;99.90
43099;DHT22;28715;51.988;6.020;2023-03-14T00:10:19;13.30;99.90
43099;DHT22;28715;51.988;6.020;2023-03-14T00:12:44;13.30;99.90
43099;DHT22;28715;51.988;6.020;2023-03-14T00:15:11;13.30;99.90
43099;DHT22;28715;51.988;6.020;2023-03-14T00:17:37;13.30;99.90
43099;DHT22;28715;51.988;6.020;2023-03-14T00:20:05;13.30;99.90
43099;DHT22;28715;51.988;6.020;2023-03-14T00:22:37;13.30;99.80
43099;DHT22;28715;51.988;6.020;2023-03-14T00:25:04;13.30;99.90
43099;DHT22;28715;51.988;6.020;2023-03-14T00:27:30;13.30;99.90
43099;DHT22;28715;51.988;6.020;2023-03-14T00:29:56;13.20;99.90
43099;DHT22;28715;51.988;6.020;2023-03-14T00:32:22;13.10;99.90
43099;DHT22;28715;51.988;6.020;2023-03-14T00:34:47;13.10;99.90
43099;DHT22;28715;51.988;6.020;2023-03-14T00:37:13;13.00;99.90
43099;DHT22;28715;51.988;6.020;2023-03-14T00:39:39;13.00;99.90
43099;DHT22;28715;51.988;6.020;2023-03-14T00:42:04;12.90;99.90
43099;DHT22;28715;51.988;6.020;2023-03-14T00:44:30;12.90;99.90
43099;DHT22;28715;51.988;6.020;2023-03-14T00:46:57;12.90;99.90
43099;DHT22;28715;51.988;6.020;2023-03-14T00:49:23;12.90;99.90
43099;DHT22;28715;51.988;6.020;2023-03-14T00:51:48;12.90;99.90
43099;DHT22;28715;51.988;6.020;2023-03-14T00:54:14;12.90;99.90
43099;DHT22;28715;51.988;6.020;2023-03-14T00:56:39;12.90;99.90
43099;DHT22;28715;51.988;6.020;2023-03-14T00:59:05;12.90;99.90
43099;DHT22;28715;51.988;6.020;2023-03-14T01:01:30;12.80;99.90
43099;DHT22;28715;51.988;6.020;2023-03-14T01:03:56;12.80;99.90
43099;DHT22;28715;51.988;6.020;2023-03-14T01:06:25;12.80;99.90
43099;DHT22;28715;51.988;6.020;2023-03-14T01:08:51;12.80;99.90
43099;DHT22;28715;51.988;6.020;2023-03-14T01:11:43;12.80;99.90
43099;DHT22;28715;51.988;6.020;2023-03-14T01:14:12;12.70;99.90
43099;DHT22;28715;51.988;6.020;2023-03-14T01:16:38;12.70;99.80
43099;DHT22;28715;51.988;6.020;2023-03-14T01:19:03;12.60;99.60
43099;DHT22;28715;51.988;6.020;2023-03-14T01:21:34;12.60;99.60
43099;DHT22;28715;51.988;6.020;2023-03-14T01:24:01;12.60;99.50
43099;DHT22;28715;51.988;6.020;2023-03-14T01:26:30;12.60;99.30
43099;DHT22;28715;51.988;6.020;2023-03-14T01:28:56;12.60;99.40
43099;DHT22;28715;51.988;6.020;2023-03-14T01:31:23;12.60;99.30
43099;DHT22;28715;51.988;6.020;2023-03-14T01:33:50;12.60;99.10
43099;DHT22;28715;51.988;6.020;2023-03-14T01:36:18;12.60;99.00
43099;DHT22;28715;51.988;6.020;2023-03-14T01:38:44;12.60;98.90
43099;DHT22;28715;51.988;6.020;2023-03-14T01:41:15;12.60;98.30
43099;DHT22;28715;51.988;6.020;2023-03-14T01:43:41;12.50;98.30
43099;DHT22;28715;51.988;6.020;2023-03-14T01:51:27;12.50;98.40
43099;DHT22;28715;51.988;6.020;2023-03-14T01:53:59;12.50;98.50
43099;DHT22;28715;51.988;6.020;2023-03-14T01:56:26;12.50;98.40
43099;DHT22;28715;51.988;6.020;2023-03-14T01:58:53;12.50;98.40
43099;DHT22;28715;51.988;6.020;2023-03-14T02:01:21;12.50;98.50
43099;DHT22;28715;51.988;6.020;2023-03-14T02:03:56;12.50;98.50
43099;DHT22;28715;51.988;6.020;2023-03-14T02:06:29;12.50;98.60
43099;DHT22;28715;51.988;6.020;2023-03-14T02:08:56;12.50;98.90
43099;DHT22;28715;51.988;6.020;2023-03-14T02:11:26;12.50;99.20
43099;DHT22;28715;51.988;6.020;2023-03-14T02:13:53;12.50;99.60
43099;DHT22;28715;51.988;6.020;2023-03-14T02:16:19;12.50;99.80
43099;DHT22;28715;51.988;6.020;2023-03-14T02:18:45;12.50;99.90
43099;DHT22;28715;51.988;6.020;2023-03-14T02:21:17;12.40;99.90
43099;DHT22;28715;51.988;6.020;2023-03-14T02:26:43;12.40;99.90
43099;DHT22;28715;51.988;6.020;2023-03-14T02:29:09;12.20;99.90
43099;DHT22;28715;51.988;6.020;2023-03-14T02:31:35;12.20;99.90
43099;DHT22;28715;51.988;6.020;2023-03-14T02:34:02;12.10;99.90
43099;DHT22;28715;51.988;6.020;2023-03-14T02:36:28;12.10;99.90
43099;DHT22;28715;51.988;6.020;2023-03-14T02:39:04;12.00;99.90
43099;DHT22;28715;51.988;6.020;2023-03-14T02:41:32;12.00;99.90
43099;DHT22;28715;51.988;6.020;2023-03-14T02:43:58;11.90;99.90
43099;DHT22;28715;51.988;6.020;2023-03-14T02:46:23;12.00;99.90
43099;DHT22;28715;51.988;6.020;2023-03-14T02:48:59;11.90;99.90
43099;DHT22;28715;51.988;6.020;2023-03-14T02:51:27;11.90;99.90
43099;DHT22;28715;51.988;6.020;2023-03-14T02:53:53;11.90;99.90
43099;DHT22;28715;51.988;6.020;2023-03-14T02:56:19;11.90;99.90
43099;DHT22;28715;51.988;6.020;2023-03-14T02:58:44;11.90;99.90
43099;DHT22;28715;51.988;6.020;2023-03-14T03:01:10;11.90;99.90
43099;DHT22;28715;51.988;6.020;2023-03-14T03:03:35;11.90;99.90
43099;DHT22;28715;51.988;6.020;2023-03-14T03:06:01;11.80;99.90
43099;DHT22;28715;51.988;6.020;2023-03-14T03:08:28;11.80;99.90
43099;DHT22;28715;51.988;6.020;2023-03-14T03:10:56;11.80;99.90
43099;DHT22;28715;51.988;6.020;2023-03-14T03:13:22;11.70;99.90
43099;DHT22;28715;51.988;6.020;2023-03-14T03:15:48;11.70;99.90
43099;DHT22;28715;51.988;6.020;2023-03-14T03:18:13;11.70;99.90
43099;DHT22;28715;51.988;6.020;2023-03-14T03:20:39;11.60;99.90
43099;DHT22;28715;51.988;6.020;2023-03-14T03:23:04;11.60;99.90
43099;DHT22;28715;51.988;6.020;2023-03-14T03:25:30;11.60;99.90
43099;DHT22;28715;51.988;6.020;2023-03-14T03:27:56;11.60;99.90
43099;DHT22;28715;51.988;6.020;2023-03-14T03:30:22;11.60;99.90
43099;DHT22;28715;51.988;6.020;2023-03-14T03:32:48;11.60;99.90
43099;DHT22;28715;51.988;6.020;2023-03-14T03:35:13;11.60;99.90
43099;DHT22;28715;51.988;6.020;2023-03-14T03:37:39;11.60;99.90
43099;DHT22;28715;51.988;6.020;2023-03-14T03:40:06;11.60;99.90
43099;DHT22;28715;51.988;6.020;2023-03-14T03:42:32;11.60;99.90
43099;DHT22;28715;51.988;6.020;2023-03-14T03:44:59;11.60;99.90
43099;DHT22;28715;51.988;6.020;2023-03-14T03:47:25;11.60;99.90
43099;DHT22;28715;51.988;6.020;2023-03-14T03:49:50;11.60;99.90
43099;DHT22;28715;51.988;6.020;2023-03-14T03:52:16;11.60;99.90
43099;DHT22;28715;51.988;6.020;2023-03-14T03:54:42;11.70;99.90
43099;DHT22;28715;51.988;6.020;2023-03-14T03:57:07;11.70;99.90
43099;DHT22;28715;51.988;6.020;2023-03-14T03:59:33;11.70;99.90
43099;DHT22;28715;51.988;6.020;2023-03-14T04:01:59;11.70;99.90
43099;DHT22;28715;51.988;6.020;2023-03-14T04:04:24;11.70;99.90
43099;DHT22;28715;51.988;6.020;2023-03-14T04:06:50;11.70;99.90
43099;DHT22;28715;51.988;6.020;2023-03-14T04:09:15;11.80;99.90
43099;DHT22;28715;51.988;6.020;2023-03-14T04:11:41;11.80;99.90
43099;DHT22;28715;51.988;6.020;2023-03-14T04:14:07;11.80;99.90
43099;DHT22;28715;51.988;6.020;2023-03-14T04:16:32;11.70;99.90
43099;DHT22;28715;51.988;6.020;2023-03-14T04:18:58;11.80;99.90
43099;DHT22;28715;51.988;6.020;2023-03-14T04:21:23;11.80;99.90
43099;DHT22;28715;51.988;6.020;2023-03-14T04:23:49;11.80;99.90
43099;DHT22;28715;51.988;6.020;2023-03-14T04:26:16;11.80;99.90
43099;DHT22;28715;51.988;6.020;2023-03-14T04:28:41;11.80;99.90
43099;DHT22;28715;51.988;6.020;2023-03-14T04:31:08;11.90;99.90
43099;DHT22;28715;51.988;6.020;2023-03-14T04:33:34;11.90;99.90
43099;DHT22;28715;51.988;6.020;2023-03-14T04:36:00;11.90;99.90
43099;DHT22;28715;51.988;6.020;2023-03-14T04:38:25;11.90;99.90
43099;DHT22;28715;51.988;6.020;2023-03-14T04:40:51;11.90;99.90
43099;DHT22;28715;51.988;6.020;2023-03-14T04:43:16;11.90;99.90
43099;DHT22;28715;51.988;6.020;2023-03-14T04:45:42;12.00;99.90
43099;DHT22;28715;51.988;6.020;2023-03-14T04:48:08;12.00;99.90
43099;DHT22;28715;51.988;6.020;2023-03-14T04:50:34;11.90;99.90
43099;DHT22;28715;51.988;6.020;2023-03-14T04:53:00;11.90;99.90
43099;DHT22;28715;51.988;6.020;2023-03-14T04:55:25;11.90;99.90
43099;DHT22;28715;51.988;6.020;2023-03-14T04:57:51;11.90;99.90
43099;DHT22;28715;51.988;6.020;2023-03-14T05:00:16;11.90;99.90
43099;DHT22;28715;51.988;6.020;2023-03-14T05:02:45;11.90;99.90
43099;DHT22;28715;51.988;6.020;2023-03-14T05:05:11;11.90;99.90
43099;DHT22;28715;51.988;6.020;2023-03-14T05:07:37;11.90;99.90
43099;DHT22;28715;51.988;6.020;2023-03-14T05:10:02;11.80;99.90
43099;DHT22;28715;51.988;6.020;2023-03-14T05:12:28;11.80;99.90
43099;DHT22;28715;51.988;6.020;2023-03-14T05:14:54;11.80;99.90
43099;DHT22;28715;51.988;6.020;2023-03-14T05:17:19;11.80;99.90
43099;DHT22;28715;51.988;6.020;2023-03-14T05:19:45;11.80;99.90
43099;DHT22;28715;51.988;6.020;2023-03-14T05:22:11;11.80;99.90
43099;DHT22;28715;51.988;6.020;2023-03-14T05:24:37;11.80;99.90
43099;DHT22;28715;51.988;6.020;2023-03-14T05:27:03;11.80;99.90
43099;DHT22;28715;51.988;6.020;2023-03-14T05:29:29;11.80;99.90
43099;DHT22;28715;51.988;6.020;2023-03-14T05:31:54;11.80;99.90
43099;DHT22;28715;51.988;6.020;2023-03-14T05:34:20;11.80;99.90
43099;DHT22;28715;51.988;6.020;2023-03-14T05:36:45;11.70;99.90
43099;DHT22;28715;51.988;6.020;2023-03-14T05:39:11;11.70;99.90
43099;DHT22;28715;51.988;6.020;2023-03-14T05:41:37;11.70;99.90
43099;DHT22;28715;51.988;6.020;2023-03-14T05:44:02;11.60;99.90
43099;DHT22;28715;51.988;6.020;2023-03-14T05:46:28;11.60;99.90
43099;DHT22;28715;51.988;6.020;2023-03-14T05:48:56;11.60;99.90
43099;DHT22;28715;51.988;6.020;2023-03-14T05:51:22;11.50;99.90
43099;DHT22;28715;51.988;6.020;2023-03-14T05:53:47;11.60;99.90
43099;DHT22;28715;51.988;6.020;2023-03-14T05:56:13;11.60;99.90
43099;DHT22;28715;51.988;6.020;2023-03-14T05:58:39;11.60;99.90
43099;DHT22;28715;51.988;6.020;2023-03-14T06:01:05;11.60;99.90
43099;DHT22;28715;51.988;6.020;2023-03-14T06:03:31;11.60;99.90
43099;DHT22;28715;51.988;6.020;2023-03-14T06:05:57;11.60;99.90
43099;DHT22;28715;51.988;6.020;2023-03-14T06:08:23;11.60;99.90
43099;DHT22;28715;51.988;6.020;2023-03-14T06:10:49;11.50;99.90
43099;DHT22;28715;51.988;6.020;2023-03-14T06:13:14;11.50;99.90
43099;DHT22;28715;51.988;6.020;2023-03-14T06:15:41;11.50;99.90
43099;DHT22;28715;51.988;6.020;2023-03-14T06:18:06;11.50;99.90
43099;DHT22;28715;51.988;6.020;2023-03-14T06:20:32;11.50;99.90
43099;DHT22;28715;51.988;6.020;2023-03-14T06:22:58;11.50;99.90
43099;DHT22;28715;51.988;6.020;2023-03-14T06:25:24;11.50;99.90
43099;DHT22;28715;51.988;6.020;2023-03-14T06:27:50;11.40;99.90
43099;DHT22;28715;51.988;6.020;2023-03-14T06:30:15;11.40;99.90
43099;DHT22;28715;51.988;6.020;2023-03-14T06:32:41;11.40;99.90
43099;DHT22;28715;51.988;6.020;2023-03-14T06:35:07;11.40;99.90
43099;DHT22;28715;51.988;6.020;2023-03-14T06:37:33;11.40;99.90
43099;DHT22;28715;51.988;6.020;2023-03-14T06:39:59;11.40;99.90
43099;DHT22;28715;51.988;6.020;2023-03-14T06:42:34;11.40;99.90
43099;DHT22;28715;51.988;6.020;2023-03-14T06:45:09;11.40;99.90
43099;DHT22;28715;51.988;6.020;2023-03-14T06:47:35;11.40;99.90
43099;DHT22;28715;51.988;6.020;2023-03-14T06:50:01;11.40;99.90
43099;DHT22;28715;51.988;6.020;2023-03-14T06:52:26;11.40;99.90
43099;DHT22;28715;51.988;6.020;2023-03-14T06:55:00;11.40;99.90
43099;DHT22;28715;51.988;6.020;2023-03-14T06:57:33;11.40;99.90
43099;DHT22;28715;51.988;6.020;2023-03-14T06:59:59;11.50;99.90
43099;DHT22;28715;51.988;6.020;2023-03-14T07:02:24;11.50;99.90
43099;DHT22;28715;51.988;6.020;2023-03-14T07:04:50;11.40;99.90
43099;DHT22;28715;51.988;6.020;2023-03-14T07:07:15;11.40;99.90
43099;DHT22;28715;51.988;6.020;2023-03-14T07:09:41;11.50;99.90
43099;DHT22;28715;51.988;6.020;2023-03-14T07:12:07;11.50;99.90
43099;DHT22;28715;51.988;6.020;2023-03-14T07:14:32;11.50;99.90
43099;DHT22;28715;51.988;6.020;2023-03-14T07:16:58;11.50;99.90
43099;DHT22;28715;51.988;6.020;2023-03-14T07:19:26;11.50;99.90
43099;DHT22;28715;51.988;6.020;2023-03-14T07:21:52;11.60;99.90
43099;DHT22;28715;51.988;6.020;2023-03-14T07:24:17;11.60;99.90
43099;DHT22;28715;51.988;6.020;2023-03-14T07:26:43;11.70;99.90
43099;DHT22;28715;51.988;6.020;2023-03-14T07:29:08;11.70;99.90
43099;DHT22;28715;51.988;6.020;2023-03-14T07:31:34;11.70;99.90
43099;DHT22;28715;51.988;6.020;2023-03-14T07:33:59;11.70;99.90
43099;DHT22;28715;51.988;6.020;2023-03-14T07:36:25;11.60;99.90
43099;DHT22;28715;51.988;6.020;2023-03-14T07:38:50;11.60;99.90
43099;DHT22;28715;51.988;6.020;2023-03-14T07:41:17;11.60;99.90
43099;DHT22;28715;51.988;6.020;2023-03-14T07:43:43;11.50;99.90
43099;DHT22;28715;51.988;6.020;2023-03-14T07:46:08;11.40;99.90
43099;DHT22;28715;51.988;6.020;2023-03-14T07:48:34;11.30;99.90
43099;DHT22;28715;51.988;6.020;2023-03-14T07:51:00;11.10;99.90
43099;DHT22;28715;51.988;6.020;2023-03-14T07:53:25;11.00;99.90
43099;DHT22;28715;51.988;6.020;2023-03-14T07:55:52;10.90;99.90
43099;DHT22;28715;51.988;6.020;2023-03-14T07:58:18;10.60;99.90
43099;DHT22;28715;51.988;6.020;2023-03-14T08:00:44;10.20;99.90
43099;DHT22;28715;51.988;6.020;2023-03-14T08:03:10;10.10;99.90
43099;DHT22;28715;51.988;6.020;2023-03-14T08:05:36;9.90;99.90
43099;DHT22;28715;51.988;6.020;2023-03-14T08:08:03;9.90;99.90
43099;DHT22;28715;51.988;6.020;2023-03-14T08:10:29;9.80;99.90
43099;DHT22;28715;51.988;6.020;2023-03-14T08:12:56;9.70;99.90
43099;DHT22;28715;51.988;6.020;2023-03-14T08:15:23;9.60;99.90
43099;DHT22;28715;51.988;6.020;2023-03-14T08:17:49;9.50;99.90
43099;DHT22;28715;51.988;6.020;2023-03-14T08:20:21;9.40;99.90
43099;DHT22;28715;51.988;6.020;2023-03-14T08:22:47;9.40;99.90
43099;DHT22;28715;51.988;6.020;2023-03-14T08:25:13;9.40;99.90
43099;DHT22;28715;51.988;6.020;2023-03-14T08:27:38;9.30;99.90
43099;DHT22;28715;51.988;6.020;2023-03-14T08:30:06;9.30;99.90
43099;DHT22;28715;51.988;6.020;2023-03-14T08:32:32;9.30;99.90
43099;DHT22;28715;51.988;6.020;2023-03-14T08:34:57;9.30;99.90
43099;DHT22;28715;51.988;6.020;2023-03-14T08:37:23;9.30;99.90
43099;DHT22;28715;51.988;6.020;2023-03-14T08:39:50;9.30;99.90
43099;DHT22;28715;51.988;6.020;2023-03-14T08:42:16;9.40;99.90
43099;DHT22;28715;51.988;6.020;2023-03-14T08:44:41;9.40;99.90
43099;DHT22;28715;51.988;6.020;2023-03-14T08:47:07;9.10;99.90
43099;DHT22;28715;51.988;6.020;2023-03-14T08:49:33;9.00;99.90
43099;DHT22;28715;51.988;6.020;2023-03-14T08:51:58;8.90;99.90
43099;DHT22;28715;51.988;6.020;2023-03-14T08:54:24;8.90;99.90
43099;DHT22;28715;51.988;6.020;2023-03-14T08:56:49;8.80;99.90
43099;DHT22;28715;51.988;6.020;2023-03-14T08:59:15;8.70;99.90
43099;DHT22;28715;51.988;6.020;2023-03-14T09:01:41;8.60;99.90
43099;DHT22;28715;51.988;6.020;2023-03-14T09:04:06;8.60;99.90
43099;DHT22;28715;51.988;6.020;2023-03-14T09:06:32;8.50;99.90
43099;DHT22;28715;51.988;6.020;2023-03-14T09:08:58;8.50;99.90
43099;DHT22;28715;51.988;6.020;2023-03-14T09:11:23;8.50;99.90
43099;DHT22;28715;51.988;6.020;2023-03-14T09:13:49;8.50;99.90
43099;DHT22;28715;51.988;6.020;2023-03-14T09:16:14;8.50;99.90
43099;DHT22;28715;51.988;6.020;2023-03-14T09:18:40;8.60;99.90
43099;DHT22;28715;51.988;6.020;2023-03-14T09:21:06;8.60;99.90
43099;DHT22;28715;51.988;6.020;2023-03-14T09:23:31;8.60;99.90
43099;DHT22;28715;51.988;6.020;2023-03-14T09:25:58;8.60;99.90
43099;DHT22;28715;51.988;6.020;2023-03-14T09:28:24;8.60;99.90
43099;DHT22;28715;51.988;6.020;2023-03-14T09:30:50;8.40;99.90
43099;DHT22;28715;51.988;6.020;2023-03-14T09:33:16;8.40;99.90
43099;DHT22;28715;51.988;6.020;2023-03-14T09:35:42;8.30;99.90
43099;DHT22;28715;51.988;6.020;2023-03-14T09:38:08;8.30;99.90
43099;DHT22;28715;51.988;6.020;2023-03-14T09:40:37;8.30;99.90
43099;DHT22;28715;51.988;6.020;2023-03-14T09:43:03;8.40;99.90
43099;DHT22;28715;51.988;6.020;2023-03-14T09:45:35;8.50;99.90
43099;DHT22;28715;51.988;6.020;2023-03-14T09:48:03;8.80;99.90
43099;DHT22;28715;51.988;6.020;2023-03-14T09:50:45;8.90;99.90
43099;DHT22;28715;51.988;6.020;2023-03-14T09:53:18;9.10;99.90
43099;DHT22;28715;51.988;6.020;2023-03-14T09:55:49;9.20;99.90
43099;DHT22;28715;51.988;6.020;2023-03-14T09:58:21;9.30;99.90
43099;DHT22;28715;51.988;6.020;2023-03-14T10:00:48;9.40;99.90
43099;DHT22;28715;51.988;6.020;2023-03-14T10:03:34;9.50;99.60
43099;DHT22;28715;51.988;6.020;2023-03-14T10:06:01;9.60;99.70
43099;DHT22;28715;51.988;6.020;2023-03-14T10:08:26;9.80;99.20
43099;DHT22;28715;51.988;6.020;2023-03-14T10:10:53;9.80;99.10
43099;DHT22;28715;51.988;6.020;2023-03-14T10:13:27;9.70;99.10
43099;DHT22;28715;51.988;6.020;2023-03-14T10:16:03;9.60;99.30
43099;DHT22;28715;51.988;6.020;2023-03-14T10:18:32;9.40;99.00
43099;DHT22;28715;51.988;6.020;2023-03-14T10:21:17;9.30;99.00
43099;DHT22;28715;51.988;6.020;2023-03-14T10:23:44;9.30;99.10
43099;DHT22;28715;51.988;6.020;2023-03-14T10:26:15;9.30;99.30
43099;DHT22;28715;51.988;6.020;2023-03-14T10:28:46;9.30;99.30
43099;DHT22;28715;51.988;6.020;2023-03-14T10:31:12;9.30;99.10
43099;DHT22;28715;51.988;6.020;2023-03-14T10:33:38;9.30;99.10
43099;DHT22;28715;51.988;6.020;2023-03-14T10:36:28;9.20;98.60
43099;DHT22;28715;51.988;6.020;2023-03-14T10:41:56;9.20;99.40
43099;DHT22;28715;51.988;6.020;2023-03-14T10:44:27;9.10;99.00
43099;DHT22;28715;51.988;6.020;2023-03-14T10:46:59;9.00;99.10
43099;DHT22;28715;51.988;6.020;2023-03-14T10:49:34;9.10;98.90
43099;DHT22;28715;51.988;6.020;2023-03-14T10:52:13;9.10;98.80
43099;DHT22;28715;51.988;6.020;2023-03-14T10:54:39;9.20;99.10
43099;DHT22;28715;51.988;6.020;2023-03-14T10:57:05;9.20;99.00
43099;DHT22;28715;51.988;6.020;2023-03-14T10:59:39;9.00;99.50
43099;DHT22;28715;51.988;6.020;2023-03-14T11:07:48;8.30;99.90
43099;DHT22;28715;51.988;6.020;2023-03-14T11:10:34;8.30;99.90
43099;DHT22;28715;51.988;6.020;2023-03-14T11:16:09;8.60;99.90
43099;DHT22;28715;51.988;6.020;2023-03-14T11:18:51;8.70;99.90
43099;DHT22;28715;51.988;6.020;2023-03-14T11:21:32;8.80;99.90
43099;DHT22;28715;51.988;6.020;2023-03-14T11:24:41;8.90;99.90
43099;DHT22;28715;51.988;6.020;2023-03-14T11:29:52;9.30;99.70
43099;DHT22;28715;51.988;6.020;2023-03-14T11:32:39;9.60;99.90
43099;DHT22;28715;51.988;6.020;2023-03-14T11:35:20;9.80;98.90
43099;DHT22;28715;51.988;6.020;2023-03-14T11:38:13;9.80;98.00
43099;DHT22;28715;51.988;6.020;2023-03-14T11:40:40;9.70;98.10
43099;DHT22;28715;51.988;6.020;2023-03-14T11:43:13;9.70;98.50
43099;DHT22;28715;51.988;6.020;2023-03-14T11:45:42;9.60;98.00
43099;DHT22;28715;51.988;6.020;2023-03-14T11:50:43;9.60;98.00
43099;DHT22;28715;51.988;6.020;2023-03-14T11:53:16;9.70;98.00
43099;DHT22;28715;51.988;6.020;2023-03-14T11:55:44;9.70;97.10
43099;DHT22;28715;51.988;6.020;2023-03-14T11:58:29;9.80;96.90
43099;DHT22;28715;51.988;6.020;2023-03-14T12:00:57;9.80;96.30
43099;DHT22;28715;51.988;6.020;2023-03-14T12:03:35;9.70;95.70
43099;DHT22;28715;51.988;6.020;2023-03-14T12:06:06;9.80;96.50
43099;DHT22;28715;51.988;6.020;2023-03-14T12:13:53;10.20;93.60
43099;DHT22;28715;51.988;6.020;2023-03-14T12:16:34;10.40;92.80
43099;DHT22;28715;51.988;6.020;2023-03-14T12:24:33;10.20;91.20
43099;DHT22;28715;51.988;6.020;2023-03-14T12:27:01;10.40;89.80
43099;DHT22;28715;51.988;6.020;2023-03-14T12:29:28;10.40;87.50
43099;DHT22;28715;51.988;6.020;2023-03-14T12:34:29;10.40;88.30
43099;DHT22;28715;51.988;6.020;2023-03-14T12:37:06;10.50;90.30
43099;DHT22;28715;51.988;6.020;2023-03-14T12:40:00;10.70;88.20
43099;DHT22;28715;51.988;6.020;2023-03-14T12:45:15;10.80;83.00
43099;DHT22;28715;51.988;6.020;2023-03-14T12:50:30;10.80;81.60
43099;DHT22;28715;51.988;6.020;2023-03-14T13:00:39;10.70;80.80
43099;DHT22;28715;51.988;6.020;2023-03-14T13:05:58;10.60;79.30
43099;DHT22;28715;51.988;6.020;2023-03-14T13:08:45;10.50;79.20
43099;DHT22;28715;51.988;6.020;2023-03-14T13:11:15;10.40;78.90
43099;DHT22;28715;51.988;6.020;2023-03-14T13:13:45;10.40;80.50
43099;DHT22;28715;51.988;6.020;2023-03-14T13:16:16;10.30;76.80
43099;DHT22;28715;51.988;6.020;2023-03-14T13:18:45;10.40;78.40
43099;DHT22;28715;51.988;6.020;2023-03-14T13:21:12;10.40;78.60
43099;DHT22;28715;51.988;6.020;2023-03-14T13:23:39;10.50;77.80
43099;DHT22;28715;51.988;6.020;2023-03-14T13:26:11;10.50;78.40
43099;DHT22;28715;51.988;6.020;2023-03-14T13:28:38;10.60;76.00
43099;DHT22;28715;51.988;6.020;2023-03-14T13:31:04;10.60;71.60
43099;DHT22;28715;51.988;6.020;2023-03-14T13:33:32;10.40;73.20
43099;DHT22;28715;51.988;6.020;2023-03-14T13:36:00;10.30;74.80
43099;DHT22;28715;51.988;6.020;2023-03-14T13:38:28;10.20;72.10
43099;DHT22;28715;51.988;6.020;2023-03-14T13:40:56;10.10;72.70
43099;DHT22;28715;51.988;6.020;2023-03-14T13:44:00;10.10;73.90
43099;DHT22;28715;51.988;6.020;2023-03-14T13:46:26;10.10;74.90
43099;DHT22;28715;51.988;6.020;2023-03-14T13:48:57;10.00;74.90
43099;DHT22;28715;51.988;6.020;2023-03-14T13:51:24;10.10;74.10
43099;DHT22;28715;51.988;6.020;2023-03-14T13:53:54;10.10;74.20
43099;DHT22;28715;51.988;6.020;2023-03-14T13:56:25;10.10;72.40
43099;DHT22;28715;51.988;6.020;2023-03-14T13:58:51;10.10;75.40
43099;DHT22;28715;51.988;6.020;2023-03-14T14:01:34;10.10;75.30
43099;DHT22;28715;51.988;6.020;2023-03-14T14:04:08;10.20;75.40
43099;DHT22;28715;51.988;6.020;2023-03-14T14:07:00;10.30;73.60
43099;DHT22;28715;51.988;6.020;2023-03-14T14:09:28;10.20;70.50
43099;DHT22;28715;51.988;6.020;2023-03-14T14:12:08;10.30;70.90
43099;DHT22;28715;51.988;6.020;2023-03-14T14:14:40;10.10;71.80
43099;DHT22;28715;51.988;6.020;2023-03-14T14:17:10;9.90;71.30
43099;DHT22;28715;51.988;6.020;2023-03-14T14:19:37;9.80;73.30
43099;DHT22;28715;51.988;6.020;2023-03-14T14:22:04;9.80;75.30
43099;DHT22;28715;51.988;6.020;2023-03-14T14:24:31;9.90;74.50
43099;DHT22;28715;51.988;6.020;2023-03-14T14:27:19;9.90;74.50
43099;DHT22;28715;51.988;6.020;2023-03-14T14:29:59;9.90;74.00
43099;DHT22;28715;51.988;6.020;2023-03-14T14:32:26;9.80;74.70
43099;DHT22;28715;51.988;6.020;2023-03-14T14:39:48;9.70;75.30
43099;DHT22;28715;51.988;6.020;2023-03-14T14:42:16;9.70;75.30
43099;DHT22;28715;51.988;6.020;2023-03-14T14:44:43;9.60;76.10
43099;DHT22;28715;51.988;6.020;2023-03-14T14:47:13;9.60;75.50
43099;DHT22;28715;51.988;6.020;2023-03-14T14:49:39;9.70;74.00
43099;DHT22;28715;51.988;6.020;2023-03-14T14:52:17;9.70;74.40
43099;DHT22;28715;51.988;6.020;2023-03-14T14:54:46;9.70;75.60
43099;DHT22;28715;51.988;6.020;2023-03-14T14:57:25;9.70;75.40
43099;DHT22;28715;51.988;6.020;2023-03-14T14:59:55;9.60;74.10
43099;DHT22;28715;51.988;6.020;2023-03-14T15:04:55;9.50;73.10
43099;DHT22;28715;51.988;6.020;2023-03-14T15:07:21;9.40;72.80
43099;DHT22;28715;51.988;6.020;2023-03-14T15:09:46;9.20;72.90
43099;DHT22;28715;51.988;6.020;2023-03-14T15:12:12;9.20;73.80
43099;DHT22;28715;51.988;6.020;2023-03-14T15:14:38;9.10;74.80
43099;DHT22;28715;51.988;6.020;2023-03-14T15:17:03;9.00;70.30
43099;DHT22;28715;51.988;6.020;2023-03-14T15:19:29;8.90;71.00
43099;DHT22;28715;51.988;6.020;2023-03-14T15:21:58;8.80;71.20
43099;DHT22;28715;51.988;6.020;2023-03-14T15:24:24;8.70;71.30
43099;DHT22;28715;51.988;6.020;2023-03-14T15:26:50;8.70;71.00
43099;DHT22;28715;51.988;6.020;2023-03-14T15:29:15;8.80;72.60
43099;DHT22;28715;51.988;6.020;2023-03-14T15:31:41;8.70;71.20
43099;DHT22;28715;51.988;6.020;2023-03-14T15:34:09;8.70;72.10
43099;DHT22;28715;51.988;6.020;2023-03-14T15:36:36;8.70;72.20
43099;DHT22;28715;51.988;6.020;2023-03-14T15:39:02;8.60;73.30
43099;DHT22;28715;51.988;6.020;2023-03-14T15:41:28;8.60;73.20
43099;DHT22;28715;51.988;6.020;2023-03-14T15:43:54;8.60;73.40
43099;DHT22;28715;51.988;6.020;2023-03-14T15:46:21;8.50;74.80
43099;DHT22;28715;51.988;6.020;2023-03-14T15:48:48;8.50;74.70
43099;DHT22;28715;51.988;6.020;2023-03-14T15:51:14;8.60;74.60
43099;DHT22;28715;51.988;6.020;2023-03-14T15:53:40;8.50;74.30
43099;DHT22;28715;51.988;6.020;2023-03-14T15:56:10;8.50;75.70
43099;DHT22;28715;51.988;6.020;2023-03-14T15:58:36;8.40;75.20
43099;DHT22;28715;51.988;6.020;2023-03-14T16:01:01;8.40;75.00
43099;DHT22;28715;51.988;6.020;2023-03-14T16:03:28;8.30;74.30
43099;DHT22;28715;51.988;6.020;2023-03-14T16:05:54;8.20;74.50
43099;DHT22;28715;51.988;6.020;2023-03-14T16:08:21;8.10;75.30
43099;DHT22;28715;51.988;6.020;2023-03-14T16:10:47;8.10;74.50
43099;DHT22;28715;51.988;6.020;2023-03-14T16:13:12;8.00;74.10
43099;DHT22;28715;51.988;6.020;2023-03-14T16:15:38;8.00;75.20
43099;DHT22;28715;51.988;6.020;2023-03-14T16:18:04;8.00;76.20
43099;DHT22;28715;51.988;6.020;2023-03-14T16:20:29;8.00;75.70
43099;DHT22;28715;51.988;6.020;2023-03-14T16:26:19;8.00;76.90
43099;DHT22;28715;51.988;6.020;2023-03-14T16:32:02;8.00;77.20
43099;DHT22;28715;51.988;6.020;2023-03-14T16:34:27;7.90;77.30
43099;DHT22;28715;51.988;6.020;2023-03-14T16:36:53;7.80;79.00
43099;DHT22;28715;51.988;6.020;2023-03-14T16:39:20;7.80;79.10
43099;DHT22;28715;51.988;6.020;2023-03-14T16:41:46;7.80;79.60
43099;DHT22;28715;51.988;6.020;2023-03-14T16:44:13;7.80;80.00
43099;DHT22;28715;51.988;6.020;2023-03-14T16:46:39;7.80;80.00
43099;DHT22;28715;51.988;6.020;2023-03-14T16:49:05;7.80;80.10
43099;DHT22;28715;51.988;6.020;2023-03-14T16:51:31;7.80;80.30